sensor_id;sensor_type;location;lat;lon;timestamp;P1;durP1;ratioP1;P2;durP2;ratioP2
69783;SDS011;57054;51.978;4.498;2023-05-10T00:00:24;20.60;;;14.05;;
69783;SDS011;57054;51.978;4.498;2023-05-10T00:02:50;17.50;;;13.70;;
69783;SDS011;57054;51.978;4.498;2023-05-10T00:05:15;23.23;;;16.90;;
69783;SDS011;57054;51.978;4.498;2023-05-10T00:07:41;23.50;;;15.45;;
69783;SDS011;57054;51.978;4.498;2023-05-10T00:10:09;28.40;;;16.80;;
69783;SDS011;57054;51.978;4.498;2023-05-10T00:12:35;20.77;;;15.23;;
69783;SDS011;57054;51.978;4.498;2023-05-10T00:15:01;21.30;;;15.18;;
69783;SDS011;57054;51.978;4.498;2023-05-10T00:17:27;19.77;;;14.95;;
69783;SDS011;57054;51.978;4.498;2023-05-10T00:19:53;22.55;;;15.75;;
69783;SDS011;57054;51.978;4.498;2023-05-10T00:22:19;25.50;;;16.58;;
69783;SDS011;57054;51.978;4.498;2023-05-10T00:24:44;20.77;;;15.45;;
69783;SDS011;57054;51.978;4.498;2023-05-10T00:27:10;25.80;;;17.77;;
69783;SDS011;57054;51.978;4.498;2023-05-10T00:29:35;20.13;;;15.35;;
69783;SDS011;57054;51.978;4.498;2023-05-10T00:32:00;20.02;;;15.23;;
69783;SDS011;57054;51.978;4.498;2023-05-10T00:34:26;18.23;;;13.10;;
69783;SDS011;57054;51.978;4.498;2023-05-10T00:36:52;17.90;;;13.93;;
69783;SDS011;57054;51.978;4.498;2023-05-10T00:39:17;17.67;;;14.15;;
69783;SDS011;57054;51.978;4.498;2023-05-10T00:41:43;28.08;;;19.20;;
69783;SDS011;57054;51.978;4.498;2023-05-10T00:44:08;22.23;;;16.83;;
69783;SDS011;57054;51.978;4.498;2023-05-10T00:46:34;21.38;;;15.45;;
69783;SDS011;57054;51.978;4.498;2023-05-10T00:48:59;18.70;;;14.95;;
69783;SDS011;57054;51.978;4.498;2023-05-10T00:51:25;21.60;;;14.95;;
69783;SDS011;57054;51.978;4.498;2023-05-10T00:53:50;21.95;;;16.58;;
69783;SDS011;57054;51.978;4.498;2023-05-10T00:56:16;20.20;;;15.73;;
69783;SDS011;57054;51.978;4.498;2023-05-10T00:58:42;21.60;;;16.70;;
69783;SDS011;57054;51.978;4.498;2023-05-10T01:01:08;23.88;;;16.13;;
69783;SDS011;57054;51.978;4.498;2023-05-10T01:03:34;32.63;;;19.13;;
69783;SDS011;57054;51.978;4.498;2023-05-10T01:06:00;35.53;;;20.50;;
69783;SDS011;57054;51.978;4.498;2023-05-10T01:08:26;42.40;;;23.35;;
69783;SDS011;57054;51.978;4.498;2023-05-10T01:10:52;37.38;;;20.88;;
69783;SDS011;57054;51.978;4.498;2023-05-10T01:13:23;35.30;;;20.10;;
69783;SDS011;57054;51.978;4.498;2023-05-10T01:16:04;28.45;;;17.33;;
69783;SDS011;57054;51.978;4.498;2023-05-10T01:18:32;36.95;;;20.75;;
69783;SDS011;57054;51.978;4.498;2023-05-10T01:21:13;29.55;;;17.60;;
69783;SDS011;57054;51.978;4.498;2023-05-10T01:32:15;29.20;;;16.73;;
69783;SDS011;57054;51.978;4.498;2023-05-10T01:35:00;27.00;;;16.77;;
69783;SDS011;57054;51.978;4.498;2023-05-10T01:37:33;34.50;;;18.83;;
69783;SDS011;57054;51.978;4.498;2023-05-10T01:40:18;24.55;;;16.13;;
69783;SDS011;57054;51.978;4.498;2023-05-10T01:45:19;26.45;;;15.90;;
69783;SDS011;57054;51.978;4.498;2023-05-10T01:48:02;28.40;;;15.50;;
69783;SDS011;57054;51.978;4.498;2023-05-10T01:50:31;28.40;;;15.90;;
69783;SDS011;57054;51.978;4.498;2023-05-10T01:52:59;24.80;;;14.98;;
69783;SDS011;57054;51.978;4.498;2023-05-10T01:55:28;29.02;;;16.40;;
69783;SDS011;57054;51.978;4.498;2023-05-10T01:58:07;23.90;;;15.88;;
69783;SDS011;57054;51.978;4.498;2023-05-10T02:00:35;28.77;;;17.83;;
69783;SDS011;57054;51.978;4.498;2023-05-10T02:03:05;25.30;;;15.43;;
69783;SDS011;57054;51.978;4.498;2023-05-10T02:05:33;36.67;;;20.23;;
69783;SDS011;57054;51.978;4.498;2023-05-10T02:08:00;34.15;;;19.20;;
69783;SDS011;57054;51.978;4.498;2023-05-10T02:10:28;27.38;;;16.95;;
69783;SDS011;57054;51.978;4.498;2023-05-10T02:12:54;25.80;;;16.05;;
69783;SDS011;57054;51.978;4.498;2023-05-10T02:15:23;22.02;;;13.95;;
69783;SDS011;57054;51.978;4.498;2023-05-10T02:17:50;23.88;;;15.55;;
69783;SDS011;57054;51.978;4.498;2023-05-10T02:20:19;22.13;;;14.82;;
69783;SDS011;57054;51.978;4.498;2023-05-10T02:22:45;20.38;;;13.18;;
69783;SDS011;57054;51.978;4.498;2023-05-10T02:25:13;21.63;;;13.90;;
69783;SDS011;57054;51.978;4.498;2023-05-10T02:27:42;22.40;;;13.05;;
69783;SDS011;57054;51.978;4.498;2023-05-10T02:30:10;18.25;;;12.30;;
69783;SDS011;57054;51.978;4.498;2023-05-10T02:32:36;15.32;;;11.25;;
69783;SDS011;57054;51.978;4.498;2023-05-10T02:35:03;18.10;;;11.13;;
69783;SDS011;57054;51.978;4.498;2023-05-10T02:37:29;18.70;;;11.40;;
69783;SDS011;57054;51.978;4.498;2023-05-10T02:39:55;14.68;;;10.38;;
69783;SDS011;57054;51.978;4.498;2023-05-10T02:42:27;14.80;;;10.77;;
69783;SDS011;57054;51.978;4.498;2023-05-10T02:45:17;17.15;;;10.65;;
69783;SDS011;57054;51.978;4.498;2023-05-10T02:47:43;15.00;;;10.63;;
69783;SDS011;57054;51.978;4.498;2023-05-10T02:50:09;15.30;;;10.95;;
69783;SDS011;57054;51.978;4.498;2023-05-10T02:52:47;17.30;;;11.60;;
69783;SDS011;57054;51.978;4.498;2023-05-10T02:55:19;14.10;;;10.73;;
69783;SDS011;57054;51.978;4.498;2023-05-10T02:57:55;15.05;;;11.05;;
69783;SDS011;57054;51.978;4.498;2023-05-10T03:00:24;15.65;;;11.00;;
69783;SDS011;57054;51.978;4.498;2023-05-10T03:02:50;14.20;;;10.70;;
69783;SDS011;57054;51.978;4.498;2023-05-10T03:05:15;17.25;;;11.27;;
69783;SDS011;57054;51.978;4.498;2023-05-10T03:07:40;19.20;;;12.98;;
69783;SDS011;57054;51.978;4.498;2023-05-10T03:10:06;36.67;;;19.90;;
69783;SDS011;57054;51.978;4.498;2023-05-10T03:15:28;23.73;;;14.55;;
69783;SDS011;57054;51.978;4.498;2023-05-10T03:18:01;18.92;;;12.85;;
69783;SDS011;57054;51.978;4.498;2023-05-10T03:20:31;19.15;;;12.93;;
69783;SDS011;57054;51.978;4.498;2023-05-10T03:23:07;13.95;;;11.38;;
69783;SDS011;57054;51.978;4.498;2023-05-10T03:25:38;15.55;;;11.55;;
69783;SDS011;57054;51.978;4.498;2023-05-10T03:28:05;18.40;;;11.32;;
69783;SDS011;57054;51.978;4.498;2023-05-10T03:30:31;14.50;;;11.80;;
69783;SDS011;57054;51.978;4.498;2023-05-10T03:32:57;22.92;;;14.85;;
69783;SDS011;57054;51.978;4.498;2023-05-10T03:35:22;15.80;;;13.30;;
69783;SDS011;57054;51.978;4.498;2023-05-10T03:37:48;18.90;;;12.57;;
69783;SDS011;57054;51.978;4.498;2023-05-10T03:40:14;15.48;;;13.18;;
69783;SDS011;57054;51.978;4.498;2023-05-10T03:42:39;16.98;;;13.25;;
69783;SDS011;57054;51.978;4.498;2023-05-10T03:45:05;22.88;;;15.75;;
69783;SDS011;57054;51.978;4.498;2023-05-10T03:47:32;18.45;;;14.73;;
69783;SDS011;57054;51.978;4.498;2023-05-10T03:49:57;19.95;;;15.80;;
69783;SDS011;57054;51.978;4.498;2023-05-10T03:52:22;20.25;;;15.52;;
69783;SDS011;57054;51.978;4.498;2023-05-10T03:54:48;19.10;;;14.23;;
69783;SDS011;57054;51.978;4.498;2023-05-10T03:57:13;17.52;;;14.50;;
69783;SDS011;57054;51.978;4.498;2023-05-10T03:59:39;21.13;;;15.63;;
69783;SDS011;57054;51.978;4.498;2023-05-10T04:02:04;21.67;;;15.90;;
69783;SDS011;57054;51.978;4.498;2023-05-10T04:04:30;18.77;;;14.13;;
69783;SDS011;57054;51.978;4.498;2023-05-10T04:06:55;20.60;;;14.65;;
69783;SDS011;57054;51.978;4.498;2023-05-10T04:09:20;22.23;;;15.95;;
69783;SDS011;57054;51.978;4.498;2023-05-10T04:11:46;26.45;;;17.80;;
69783;SDS011;57054;51.978;4.498;2023-05-10T04:14:11;22.63;;;15.82;;
69783;SDS011;57054;51.978;4.498;2023-05-10T04:16:37;21.40;;;14.77;;
69783;SDS011;57054;51.978;4.498;2023-05-10T04:19:02;20.77;;;13.68;;
69783;SDS011;57054;51.978;4.498;2023-05-10T04:21:28;21.55;;;14.40;;
69783;SDS011;57054;51.978;4.498;2023-05-10T04:23:54;33.22;;;17.15;;
69783;SDS011;57054;51.978;4.498;2023-05-10T04:26:19;27.73;;;16.48;;
69783;SDS011;57054;51.978;4.498;2023-05-10T04:28:45;28.50;;;15.45;;
69783;SDS011;57054;51.978;4.498;2023-05-10T04:31:11;23.25;;;13.73;;
69783;SDS011;57054;51.978;4.498;2023-05-10T04:33:36;21.52;;;13.05;;
69783;SDS011;57054;51.978;4.498;2023-05-10T04:36:02;20.65;;;13.18;;
69783;SDS011;57054;51.978;4.498;2023-05-10T04:38:28;23.27;;;13.38;;
69783;SDS011;57054;51.978;4.498;2023-05-10T04:40:53;20.92;;;13.02;;
69783;SDS011;57054;51.978;4.498;2023-05-10T04:43:19;28.13;;;14.20;;
69783;SDS011;57054;51.978;4.498;2023-05-10T04:45:45;21.08;;;12.50;;
69783;SDS011;57054;51.978;4.498;2023-05-10T04:48:10;21.90;;;12.50;;
69783;SDS011;57054;51.978;4.498;2023-05-10T04:50:36;28.85;;;14.35;;
69783;SDS011;57054;51.978;4.498;2023-05-10T04:53:02;37.35;;;15.05;;
69783;SDS011;57054;51.978;4.498;2023-05-10T04:55:27;28.85;;;13.18;;
69783;SDS011;57054;51.978;4.498;2023-05-10T04:57:53;21.38;;;11.25;;
69783;SDS011;57054;51.978;4.498;2023-05-10T05:00:21;19.33;;;10.13;;
69783;SDS011;57054;51.978;4.498;2023-05-10T05:02:47;16.80;;;9.45;;
69783;SDS011;57054;51.978;4.498;2023-05-10T05:05:12;16.10;;;8.82;;
69783;SDS011;57054;51.978;4.498;2023-05-10T05:07:38;13.75;;;8.07;;
69783;SDS011;57054;51.978;4.498;2023-05-10T05:10:06;13.52;;;7.55;;
69783;SDS011;57054;51.978;4.498;2023-05-10T05:12:33;9.18;;;6.55;;
69783;SDS011;57054;51.978;4.498;2023-05-10T05:14:59;9.75;;;6.35;;
69783;SDS011;57054;51.978;4.498;2023-05-10T05:17:24;9.23;;;6.28;;
69783;SDS011;57054;51.978;4.498;2023-05-10T05:19:50;7.10;;;5.35;;
69783;SDS011;57054;51.978;4.498;2023-05-10T05:22:15;7.25;;;4.57;;
69783;SDS011;57054;51.978;4.498;2023-05-10T05:24:41;6.40;;;4.68;;
69783;SDS011;57054;51.978;4.498;2023-05-10T05:27:06;5.88;;;4.90;;
69783;SDS011;57054;51.978;4.498;2023-05-10T05:29:32;4.65;;;4.07;;
69783;SDS011;57054;51.978;4.498;2023-05-10T05:31:57;4.68;;;3.75;;
69783;SDS011;57054;51.978;4.498;2023-05-10T05:34:23;4.30;;;3.42;;
69783;SDS011;57054;51.978;4.498;2023-05-10T05:36:49;5.82;;;3.50;;
69783;SDS011;57054;51.978;4.498;2023-05-10T05:39:15;3.80;;;3.40;;
69783;SDS011;57054;51.978;4.498;2023-05-10T05:41:40;3.00;;;2.70;;
69783;SDS011;57054;51.978;4.498;2023-05-10T05:44:06;2.70;;;2.50;;
69783;SDS011;57054;51.978;4.498;2023-05-10T05:46:31;2.83;;;2.63;;
69783;SDS011;57054;51.978;4.498;2023-05-10T05:48:56;2.70;;;2.50;;
69783;SDS011;57054;51.978;4.498;2023-05-10T05:51:22;3.15;;;2.83;;
69783;SDS011;57054;51.978;4.498;2023-05-10T05:53:47;2.75;;;2.55;;
69783;SDS011;57054;51.978;4.498;2023-05-10T05:56:13;3.03;;;2.83;;
69783;SDS011;57054;51.978;4.498;2023-05-10T05:58:38;2.53;;;2.33;;
69783;SDS011;57054;51.978;4.498;2023-05-10T06:01:04;2.47;;;2.28;;
69783;SDS011;57054;51.978;4.498;2023-05-10T06:03:29;3.38;;;3.00;;
69783;SDS011;57054;51.978;4.498;2023-05-10T06:05:55;3.53;;;3.33;;
69783;SDS011;57054;51.978;4.498;2023-05-10T06:08:20;5.00;;;4.60;;
69783;SDS011;57054;51.978;4.498;2023-05-10T06:10:45;6.35;;;5.10;;
69783;SDS011;57054;51.978;4.498;2023-05-10T06:13:11;5.60;;;5.15;;
69783;SDS011;57054;51.978;4.498;2023-05-10T06:15:37;5.95;;;5.45;;
69783;SDS011;57054;51.978;4.498;2023-05-10T06:18:03;5.40;;;4.93;;
69783;SDS011;57054;51.978;4.498;2023-05-10T06:20:28;5.78;;;5.25;;
69783;SDS011;57054;51.978;4.498;2023-05-10T06:22:53;4.97;;;4.60;;
69783;SDS011;57054;51.978;4.498;2023-05-10T06:25:19;6.38;;;5.60;;
69783;SDS011;57054;51.978;4.498;2023-05-10T06:27:44;5.90;;;5.40;;
69783;SDS011;57054;51.978;4.498;2023-05-10T06:30:10;5.95;;;5.50;;
69783;SDS011;57054;51.978;4.498;2023-05-10T06:32:38;6.85;;;6.18;;
69783;SDS011;57054;51.978;4.498;2023-05-10T06:35:03;5.95;;;5.35;;
69783;SDS011;57054;51.978;4.498;2023-05-10T06:37:29;5.50;;;5.00;;
69783;SDS011;57054;51.978;4.498;2023-05-10T06:39:54;6.22;;;5.63;;
69783;SDS011;57054;51.978;4.498;2023-05-10T06:42:20;6.30;;;5.80;;
69783;SDS011;57054;51.978;4.498;2023-05-10T06:44:45;5.55;;;5.07;;
69783;SDS011;57054;51.978;4.498;2023-05-10T06:47:10;5.20;;;4.70;;
69783;SDS011;57054;51.978;4.498;2023-05-10T06:49:36;4.93;;;4.47;;
69783;SDS011;57054;51.978;4.498;2023-05-10T06:52:02;4.05;;;3.75;;
69783;SDS011;57054;51.978;4.498;2023-05-10T06:54:27;5.53;;;4.95;;
69783;SDS011;57054;51.978;4.498;2023-05-10T06:56:52;5.18;;;4.68;;
69783;SDS011;57054;51.978;4.498;2023-05-10T06:59:18;4.63;;;3.95;;
69783;SDS011;57054;51.978;4.498;2023-05-10T07:01:44;4.97;;;4.18;;
69783;SDS011;57054;51.978;4.498;2023-05-10T07:04:09;7.90;;;5.00;;
69783;SDS011;57054;51.978;4.498;2023-05-10T07:06:35;6.35;;;4.88;;
69783;SDS011;57054;51.978;4.498;2023-05-10T07:09:01;4.57;;;4.10;;
69783;SDS011;57054;51.978;4.498;2023-05-10T07:11:26;4.28;;;3.85;;
69783;SDS011;57054;51.978;4.498;2023-05-10T07:13:51;6.15;;;4.80;;
69783;SDS011;57054;51.978;4.498;2023-05-10T07:16:17;11.82;;;5.45;;
69783;SDS011;57054;51.978;4.498;2023-05-10T07:18:42;5.68;;;4.85;;
69783;SDS011;57054;51.978;4.498;2023-05-10T07:21:08;8.32;;;5.93;;
69783;SDS011;57054;51.978;4.498;2023-05-10T07:23:33;6.47;;;5.65;;
69783;SDS011;57054;51.978;4.498;2023-05-10T07:25:58;5.22;;;4.80;;
69783;SDS011;57054;51.978;4.498;2023-05-10T07:28:24;6.65;;;5.50;;
69783;SDS011;57054;51.978;4.498;2023-05-10T07:30:49;4.90;;;4.43;;
69783;SDS011;57054;51.978;4.498;2023-05-10T07:33:15;5.47;;;4.97;;
69783;SDS011;57054;51.978;4.498;2023-05-10T07:35:41;4.80;;;4.20;;
69783;SDS011;57054;51.978;4.498;2023-05-10T07:38:07;6.45;;;5.80;;
69783;SDS011;57054;51.978;4.498;2023-05-10T07:40:32;7.22;;;6.07;;
69783;SDS011;57054;51.978;4.498;2023-05-10T07:42:58;7.43;;;5.72;;
69783;SDS011;57054;51.978;4.498;2023-05-10T07:45:24;7.53;;;5.90;;
69783;SDS011;57054;51.978;4.498;2023-05-10T07:47:50;7.65;;;5.13;;
69783;SDS011;57054;51.978;4.498;2023-05-10T07:50:15;7.15;;;5.82;;
69783;SDS011;57054;51.978;4.498;2023-05-10T07:52:41;7.10;;;4.65;;
69783;SDS011;57054;51.978;4.498;2023-05-10T07:55:07;4.97;;;4.47;;
69783;SDS011;57054;51.978;4.498;2023-05-10T07:57:33;4.60;;;4.20;;
69783;SDS011;57054;51.978;4.498;2023-05-10T07:59:59;4.30;;;3.90;;
69783;SDS011;57054;51.978;4.498;2023-05-10T08:02:24;4.13;;;3.83;;
69783;SDS011;57054;51.978;4.498;2023-05-10T08:04:50;3.72;;;3.42;;
69783;SDS011;57054;51.978;4.498;2023-05-10T08:07:15;3.95;;;3.65;;
69783;SDS011;57054;51.978;4.498;2023-05-10T08:09:41;4.10;;;3.70;;
69783;SDS011;57054;51.978;4.498;2023-05-10T08:12:06;6.97;;;4.93;;
69783;SDS011;57054;51.978;4.498;2023-05-10T08:14:32;5.63;;;4.45;;
69783;SDS011;57054;51.978;4.498;2023-05-10T08:16:57;4.30;;;3.90;;
69783;SDS011;57054;51.978;4.498;2023-05-10T08:19:22;4.70;;;4.00;;
69783;SDS011;57054;51.978;4.498;2023-05-10T08:21:48;5.93;;;4.50;;
69783;SDS011;57054;51.978;4.498;2023-05-10T08:24:14;5.85;;;5.25;;
69783;SDS011;57054;51.978;4.498;2023-05-10T08:26:39;4.80;;;4.32;;
69783;SDS011;57054;51.978;4.498;2023-05-10T08:29:05;5.43;;;4.35;;
69783;SDS011;57054;51.978;4.498;2023-05-10T08:31:30;4.80;;;4.40;;
69783;SDS011;57054;51.978;4.498;2023-05-10T08:33:56;5.57;;;4.68;;
69783;SDS011;57054;51.978;4.498;2023-05-10T08:36:21;4.22;;;3.72;;
69783;SDS011;57054;51.978;4.498;2023-05-10T08:38:51;7.45;;;4.65;;
69783;SDS011;57054;51.978;4.498;2023-05-10T08:41:19;6.45;;;4.70;;
69783;SDS011;57054;51.978;4.498;2023-05-10T08:43:46;7.80;;;4.57;;
69783;SDS011;57054;51.978;4.498;2023-05-10T08:46:13;8.63;;;4.90;;
69783;SDS011;57054;51.978;4.498;2023-05-10T08:48:43;6.00;;;4.75;;
69783;SDS011;57054;51.978;4.498;2023-05-10T08:51:09;7.00;;;4.47;;
69783;SDS011;57054;51.978;4.498;2023-05-10T08:53:38;7.68;;;4.18;;
69783;SDS011;57054;51.978;4.498;2023-05-10T08:56:04;4.80;;;4.45;;
69783;SDS011;57054;51.978;4.498;2023-05-10T08:58:30;4.30;;;3.80;;
69783;SDS011;57054;51.978;4.498;2023-05-10T09:00:55;4.15;;;3.85;;
69783;SDS011;57054;51.978;4.498;2023-05-10T09:03:22;5.38;;;3.67;;
69783;SDS011;57054;51.978;4.498;2023-05-10T09:05:48;4.18;;;3.75;;
69783;SDS011;57054;51.978;4.498;2023-05-10T09:08:14;3.97;;;3.58;;
69783;SDS011;57054;51.978;4.498;2023-05-10T09:10:43;5.57;;;3.78;;
69783;SDS011;57054;51.978;4.498;2023-05-10T09:13:10;4.22;;;3.92;;
69783;SDS011;57054;51.978;4.498;2023-05-10T09:15:36;3.65;;;3.35;;
69783;SDS011;57054;51.978;4.498;2023-05-10T09:18:02;4.20;;;3.90;;
69783;SDS011;57054;51.978;4.498;2023-05-10T09:20:27;3.70;;;3.40;;
69783;SDS011;57054;51.978;4.498;2023-05-10T09:22:53;3.67;;;3.38;;
69783;SDS011;57054;51.978;4.498;2023-05-10T09:25:19;4.97;;;3.97;;
69783;SDS011;57054;51.978;4.498;2023-05-10T09:27:44;4.40;;;3.42;;
69783;SDS011;57054;51.978;4.498;2023-05-10T09:30:23;3.60;;;3.35;;
69783;SDS011;57054;51.978;4.498;2023-05-10T09:32:50;4.68;;;4.28;;
69783;SDS011;57054;51.978;4.498;2023-05-10T09:35:17;5.00;;;3.80;;
69783;SDS011;57054;51.978;4.498;2023-05-10T09:37:46;6.18;;;5.00;;
69783;SDS011;57054;51.978;4.498;2023-05-10T09:40:17;9.25;;;5.93;;
69783;SDS011;57054;51.978;4.498;2023-05-10T09:45:35;5.07;;;4.65;;
69783;SDS011;57054;51.978;4.498;2023-05-10T09:48:02;7.72;;;5.63;;
69783;SDS011;57054;51.978;4.498;2023-05-10T09:50:28;5.60;;;5.10;;
69783;SDS011;57054;51.978;4.498;2023-05-10T09:52:58;7.18;;;5.88;;
69783;SDS011;57054;51.978;4.498;2023-05-10T09:55:41;6.95;;;5.85;;
69783;SDS011;57054;51.978;4.498;2023-05-10T09:58:09;8.10;;;5.80;;
69783;SDS011;57054;51.978;4.498;2023-05-10T10:00:36;8.23;;;5.93;;
69783;SDS011;57054;51.978;4.498;2023-05-10T10:03:03;6.78;;;5.80;;
69783;SDS011;57054;51.978;4.498;2023-05-10T10:05:30;5.38;;;4.88;;
69783;SDS011;57054;51.978;4.498;2023-05-10T10:07:59;9.38;;;5.20;;
69783;SDS011;57054;51.978;4.498;2023-05-10T10:10:26;4.78;;;4.35;;
69783;SDS011;57054;51.978;4.498;2023-05-10T10:12:52;5.50;;;4.20;;
69783;SDS011;57054;51.978;4.498;2023-05-10T10:15:19;4.88;;;4.40;;
69783;SDS011;57054;51.978;4.498;2023-05-10T10:17:45;6.95;;;4.70;;
69783;SDS011;57054;51.978;4.498;2023-05-10T10:20:11;4.10;;;3.80;;
69783;SDS011;57054;51.978;4.498;2023-05-10T10:22:37;3.70;;;3.40;;
69783;SDS011;57054;51.978;4.498;2023-05-10T10:25:04;6.07;;;4.45;;
69783;SDS011;57054;51.978;4.498;2023-05-10T10:36:03;4.78;;;4.32;;
69783;SDS011;57054;51.978;4.498;2023-05-10T10:38:35;5.93;;;4.30;;
69783;SDS011;57054;51.978;4.498;2023-05-10T10:41:32;7.45;;;4.50;;
69783;SDS011;57054;51.978;4.498;2023-05-10T10:46:59;5.32;;;4.43;;
69783;SDS011;57054;51.978;4.498;2023-05-10T10:54:58;5.18;;;4.78;;
69783;SDS011;57054;51.978;4.498;2023-05-10T10:57:24;4.57;;;4.18;;
69783;SDS011;57054;51.978;4.498;2023-05-10T10:59:51;4.70;;;4.20;;
69783;SDS011;57054;51.978;4.498;2023-05-10T11:02:36;6.85;;;4.70;;
69783;SDS011;57054;51.978;4.498;2023-05-10T11:05:23;3.92;;;3.63;;
69783;SDS011;57054;51.978;4.498;2023-05-10T11:07:58;4.80;;;4.32;;
69783;SDS011;57054;51.978;4.498;2023-05-10T11:10:25;4.47;;;4.18;;
69783;SDS011;57054;51.978;4.498;2023-05-10T11:12:52;5.97;;;3.72;;
69783;SDS011;57054;51.978;4.498;2023-05-10T11:15:31;5.80;;;5.30;;
69783;SDS011;57054;51.978;4.498;2023-05-10T11:17:57;5.10;;;4.70;;
69783;SDS011;57054;51.978;4.498;2023-05-10T11:20:23;6.55;;;5.88;;
69783;SDS011;57054;51.978;4.498;2023-05-10T11:22:58;6.38;;;5.20;;
69783;SDS011;57054;51.978;4.498;2023-05-10T11:25:35;5.88;;;5.40;;
69783;SDS011;57054;51.978;4.498;2023-05-10T11:28:06;6.40;;;5.03;;
69783;SDS011;57054;51.978;4.498;2023-05-10T11:30:31;5.78;;;4.90;;
69783;SDS011;57054;51.978;4.498;2023-05-10T11:32:57;4.60;;;4.20;;
69783;SDS011;57054;51.978;4.498;2023-05-10T11:35:22;4.03;;;3.72;;
69783;SDS011;57054;51.978;4.498;2023-05-10T11:37:48;12.75;;;5.80;;
69783;SDS011;57054;51.978;4.498;2023-05-10T11:40:13;8.38;;;5.72;;
69783;SDS011;57054;51.978;4.498;2023-05-10T11:42:39;5.85;;;4.60;;
69783;SDS011;57054;51.978;4.498;2023-05-10T11:45:05;9.80;;;5.53;;
69783;SDS011;57054;51.978;4.498;2023-05-10T11:47:31;5.57;;;5.13;;
69783;SDS011;57054;51.978;4.498;2023-05-10T11:49:56;6.68;;;5.10;;
69783;SDS011;57054;51.978;4.498;2023-05-10T11:52:23;9.50;;;5.25;;
69783;SDS011;57054;51.978;4.498;2023-05-10T11:54:52;4.97;;;4.57;;
69783;SDS011;57054;51.978;4.498;2023-05-10T11:57:19;5.70;;;5.15;;
69783;SDS011;57054;51.978;4.498;2023-05-10T11:59:47;4.75;;;4.35;;
69783;SDS011;57054;51.978;4.498;2023-05-10T12:02:18;7.95;;;4.55;;
69783;SDS011;57054;51.978;4.498;2023-05-10T12:04:44;5.13;;;4.63;;
69783;SDS011;57054;51.978;4.498;2023-05-10T12:07:09;4.15;;;3.70;;
69783;SDS011;57054;51.978;4.498;2023-05-10T12:09:35;3.72;;;3.42;;
69783;SDS011;57054;51.978;4.498;2023-05-10T12:12:00;4.93;;;4.43;;
69783;SDS011;57054;51.978;4.498;2023-05-10T12:14:27;8.05;;;4.65;;
69783;SDS011;57054;51.978;4.498;2023-05-10T12:16:53;7.95;;;4.10;;
69783;SDS011;57054;51.978;4.498;2023-05-10T12:19:21;3.88;;;3.58;;
69783;SDS011;57054;51.978;4.498;2023-05-10T12:21:47;4.78;;;4.38;;
69783;SDS011;57054;51.978;4.498;2023-05-10T12:24:13;9.18;;;5.30;;
69783;SDS011;57054;51.978;4.498;2023-05-10T12:26:41;9.55;;;5.20;;
69783;SDS011;57054;51.978;4.498;2023-05-10T12:29:13;12.63;;;6.70;;
69783;SDS011;57054;51.978;4.498;2023-05-10T12:31:56;10.60;;;6.68;;
69783;SDS011;57054;51.978;4.498;2023-05-10T12:36:55;5.43;;;4.57;;
69783;SDS011;57054;51.978;4.498;2023-05-10T12:39:20;7.78;;;4.47;;
69783;SDS011;57054;51.978;4.498;2023-05-10T12:41:46;5.32;;;4.47;;
69783;SDS011;57054;51.978;4.498;2023-05-10T12:44:12;5.05;;;3.90;;
69783;SDS011;57054;51.978;4.498;2023-05-10T12:46:37;7.07;;;4.97;;
69783;SDS011;57054;51.978;4.498;2023-05-10T12:49:03;5.78;;;3.97;;
69783;SDS011;57054;51.978;4.498;2023-05-10T12:51:28;7.45;;;4.82;;
69783;SDS011;57054;51.978;4.498;2023-05-10T12:53:53;5.43;;;4.53;;
69783;SDS011;57054;51.978;4.498;2023-05-10T12:56:19;6.75;;;4.88;;
69783;SDS011;57054;51.978;4.498;2023-05-10T12:58:45;5.43;;;4.60;;
69783;SDS011;57054;51.978;4.498;2023-05-10T13:01:14;6.97;;;4.47;;
69783;SDS011;57054;51.978;4.498;2023-05-10T13:03:39;4.75;;;4.00;;
69783;SDS011;57054;51.978;4.498;2023-05-10T13:06:05;4.53;;;3.92;;
69783;SDS011;57054;51.978;4.498;2023-05-10T13:08:31;4.38;;;3.97;;
69783;SDS011;57054;51.978;4.498;2023-05-10T13:10:58;5.30;;;4.28;;
69783;SDS011;57054;51.978;4.498;2023-05-10T13:13:24;4.53;;;4.13;;
69783;SDS011;57054;51.978;4.498;2023-05-10T13:15:50;5.97;;;3.65;;
69783;SDS011;57054;51.978;4.498;2023-05-10T13:18:15;3.63;;;3.33;;
69783;SDS011;57054;51.978;4.498;2023-05-10T13:20:41;5.15;;;3.50;;
69783;SDS011;57054;51.978;4.498;2023-05-10T13:23:08;4.53;;;3.42;;
69783;SDS011;57054;51.978;4.498;2023-05-10T13:25:33;5.20;;;4.05;;
69783;SDS011;57054;51.978;4.498;2023-05-10T13:27:59;4.60;;;4.10;;
69783;SDS011;57054;51.978;4.498;2023-05-10T13:30:24;7.15;;;3.70;;
69783;SDS011;57054;51.978;4.498;2023-05-10T13:32:50;3.78;;;3.47;;
69783;SDS011;57054;51.978;4.498;2023-05-10T13:35:15;3.25;;;2.95;;
69783;SDS011;57054;51.978;4.498;2023-05-10T13:37:41;3.70;;;3.40;;
69783;SDS011;57054;51.978;4.498;2023-05-10T13:40:06;2.92;;;2.72;;
69783;SDS011;57054;51.978;4.498;2023-05-10T13:42:32;6.75;;;3.50;;
69783;SDS011;57054;51.978;4.498;2023-05-10T13:44:58;3.22;;;2.83;;
69783;SDS011;57054;51.978;4.498;2023-05-10T13:47:25;3.40;;;3.10;;
69783;SDS011;57054;51.978;4.498;2023-05-10T13:49:51;4.05;;;2.97;;
69783;SDS011;57054;51.978;4.498;2023-05-10T13:52:17;5.53;;;3.40;;
69783;SDS011;57054;51.978;4.498;2023-05-10T13:54:42;3.35;;;3.15;;
69783;SDS011;57054;51.978;4.498;2023-05-10T13:57:07;6.47;;;3.50;;
69783;SDS011;57054;51.978;4.498;2023-05-10T13:59:33;6.93;;;3.40;;
69783;SDS011;57054;51.978;4.498;2023-05-10T14:01:58;8.93;;;3.83;;
69783;SDS011;57054;51.978;4.498;2023-05-10T14:04:24;6.38;;;3.65;;
69783;SDS011;57054;51.978;4.498;2023-05-10T14:06:50;4.88;;;3.75;;
69783;SDS011;57054;51.978;4.498;2023-05-10T14:09:16;6.80;;;3.58;;
69783;SDS011;57054;51.978;4.498;2023-05-10T14:11:42;4.97;;;3.47;;
69783;SDS011;57054;51.978;4.498;2023-05-10T14:14:08;7.03;;;3.55;;
69783;SDS011;57054;51.978;4.498;2023-05-10T14:16:34;5.57;;;3.60;;
69783;SDS011;57054;51.978;4.498;2023-05-10T14:19:00;4.47;;;3.50;;
69783;SDS011;57054;51.978;4.498;2023-05-10T14:21:25;7.68;;;3.88;;
69783;SDS011;57054;51.978;4.498;2023-05-10T14:23:50;4.15;;;3.85;;
69783;SDS011;57054;51.978;4.498;2023-05-10T14:26:16;5.38;;;4.38;;
69783;SDS011;57054;51.978;4.498;2023-05-10T14:28:41;7.97;;;4.10;;
69783;SDS011;57054;51.978;4.498;2023-05-10T14:31:07;6.25;;;4.50;;
69783;SDS011;57054;51.978;4.498;2023-05-10T14:33:32;7.78;;;4.85;;
69783;SDS011;57054;51.978;4.498;2023-05-10T14:35:57;5.90;;;4.50;;
69783;SDS011;57054;51.978;4.498;2023-05-10T14:38:23;4.65;;;4.25;;
69783;SDS011;57054;51.978;4.498;2023-05-10T14:40:48;6.28;;;4.50;;
69783;SDS011;57054;51.978;4.498;2023-05-10T14:43:14;4.78;;;4.15;;
69783;SDS011;57054;51.978;4.498;2023-05-10T14:45:39;4.28;;;3.88;;
69783;SDS011;57054;51.978;4.498;2023-05-10T14:48:05;4.60;;;3.72;;
69783;SDS011;57054;51.978;4.498;2023-05-10T14:50:30;5.05;;;4.05;;
69783;SDS011;57054;51.978;4.498;2023-05-10T14:52:57;4.70;;;3.83;;
69783;SDS011;57054;51.978;4.498;2023-05-10T14:55:23;4.75;;;3.97;;
69783;SDS011;57054;51.978;4.498;2023-05-10T14:57:49;6.53;;;3.85;;
69783;SDS011;57054;51.978;4.498;2023-05-10T15:00:15;5.57;;;3.83;;
69783;SDS011;57054;51.978;4.498;2023-05-10T15:02:41;5.40;;;3.95;;
69783;SDS011;57054;51.978;4.498;2023-05-10T15:05:07;5.43;;;4.28;;
69783;SDS011;57054;51.978;4.498;2023-05-10T15:07:32;5.22;;;4.38;;
69783;SDS011;57054;51.978;4.498;2023-05-10T15:09:57;4.32;;;4.00;;
69783;SDS011;57054;51.978;4.498;2023-05-10T15:12:23;4.60;;;4.20;;